createdAt,value
2018-09-01T00:01:56.753Z,36.93
2018-09-01T00:04:24.976Z,32.42
2018-09-01T00:06:53.850Z,34.75
2018-09-01T00:09:22.264Z,34.83
2018-09-01T00:11:50.708Z,32.53
2018-09-01T00:14:19.144Z,29.98
2018-09-01T00:16:47.556Z,32.17
2018-09-01T00:19:16.302Z,31.45
2018-09-01T00:21:44.712Z,29.75
2018-09-01T00:24:14.073Z,31.85
2018-09-01T00:26:43.408Z,30.10
2018-09-01T00:29:11.864Z,30.65
2018-09-01T00:31:40.273Z,30.55
2018-09-01T00:34:08.755Z,27.40
2018-09-01T00:36:37.195Z,28.38
2018-09-01T00:39:07.921Z,31.37
2018-09-01T00:41:36.829Z,34.15
2018-09-01T00:44:05.377Z,29.72
2018-09-01T00:46:34.582Z,28.57
2018-09-01T00:49:03.021Z,32.60
2018-09-01T00:51:31.469Z,30.82
2018-09-01T00:53:59.889Z,31.23
2018-09-01T00:56:28.309Z,29.40
2018-09-01T00:58:56.832Z,30.95
2018-09-01T01:01:25.286Z,35.15
2018-09-01T01:03:53.708Z,29.42
2018-09-01T01:06:22.120Z,35.80
2018-09-01T01:08:50.569Z,31.68
2018-09-01T01:11:19.009Z,32.25
2018-09-01T01:13:47.686Z,31.77
2018-09-01T01:16:16.261Z,29.35
2018-09-01T01:18:44.710Z,32.83
2018-09-01T01:21:13.137Z,36.77
2018-09-01T01:23:41.645Z,30.70
2018-09-01T01:26:10.354Z,38.23
2018-09-01T01:28:38.824Z,36.00
2018-09-01T01:31:07.319Z,32.85
2018-09-01T01:33:35.777Z,36.10
2018-09-01T01:36:04.204Z,34.10
2018-09-01T01:38:32.696Z,30.90
2018-09-01T01:41:01.116Z,36.53
2018-09-01T01:43:29.574Z,36.45
2018-09-01T01:45:57.998Z,34.13
2018-09-01T01:48:26.485Z,29.63
2018-09-01T01:50:54.989Z,35.40
2018-09-01T01:53:23.416Z,36.75
2018-09-01T01:55:51.879Z,33.60
2018-09-01T01:58:20.349Z,34.08
2018-09-01T02:00:48.825Z,32.53
2018-09-01T02:03:17.229Z,32.53
2018-09-01T02:05:45.703Z,31.30
2018-09-01T02:08:14.105Z,32.33
2018-09-01T02:10:42.565Z,30.60
2018-09-01T02:13:10.957Z,33.38
2018-09-01T02:15:39.404Z,30.15
2018-09-01T02:18:07.802Z,27.67
2018-09-01T02:20:36.236Z,24.57
2018-09-01T02:23:04.733Z,29.12
2018-09-01T02:25:33.165Z,25.02
2018-09-01T02:28:01.564Z,30.70
2018-09-01T02:30:30.007Z,29.87
2018-09-01T02:32:58.441Z,25.92
2018-09-01T02:35:26.920Z,26.45
2018-09-01T02:37:55.520Z,25.17
2018-09-01T02:40:24.017Z,26.07
2018-09-01T02:42:52.428Z,26.75
2018-09-01T02:45:20.943Z,22.15
2018-09-01T02:47:49.451Z,24.92
2018-09-01T02:50:17.933Z,27.27
2018-09-01T02:52:46.054Z,28.85
2018-09-01T02:55:14.516Z,27.32
2018-09-01T02:57:42.937Z,29.12
2018-09-01T03:00:16.641Z,31.95
2018-09-01T03:02:45.765Z,31.23
2018-09-01T03:05:15.552Z,26.45
2018-09-01T03:07:43.972Z,27.42
2018-09-01T03:10:12.416Z,27.95
2018-09-01T03:12:40.892Z,25.23
2018-09-01T03:15:09.465Z,26.65
2018-09-01T03:17:37.865Z,25.92
2018-09-01T03:20:06.394Z,29.18
2018-09-01T03:22:34.833Z,23.92
2018-09-01T03:25:03.293Z,34.25
2018-09-01T03:27:31.716Z,28.52
2018-09-01T03:29:59.880Z,26.70
2018-09-01T03:32:28.294Z,31.73
2018-09-01T03:34:56.748Z,26.73
2018-09-01T03:37:25.150Z,28.12
2018-09-01T03:39:53.610Z,27.80
2018-09-01T03:42:22.049Z,29.75
2018-09-01T03:44:50.440Z,27.07
2018-09-01T03:47:18.871Z,25.88
2018-09-01T03:49:47.326Z,24.92
2018-09-01T03:52:15.772Z,28.95
2018-09-01T03:54:44.181Z,25.48
2018-09-01T03:57:12.616Z,26.12
2018-09-01T03:59:41.047Z,23.57
2018-09-01T04:02:09.497Z,24.85
2018-09-01T04:04:37.908Z,25.92
2018-09-01T04:07:06.073Z,26.27
2018-09-01T04:09:34.493Z,25.95
2018-09-01T04:12:02.904Z,21.60
2018-09-01T04:14:31.292Z,20.97
2018-09-01T04:16:59.872Z,25.75
2018-09-01T04:19:28.301Z,24.45
2018-09-01T04:21:56.741Z,27.22
2018-09-01T04:24:25.153Z,22.62
2018-09-01T04:26:53.653Z,23.92
2018-09-01T04:29:22.077Z,24.35
2018-09-01T04:31:50.552Z,25.85
2018-09-01T04:34:18.937Z,22.77
2018-09-01T04:36:47.385Z,22.27
2018-09-01T04:39:15.797Z,22.77
2018-09-01T04:41:44.236Z,23.62
2018-09-01T04:44:12.661Z,20.90
2018-09-01T04:46:41.768Z,23.05
2018-09-01T04:49:10.216Z,24.35
2018-09-01T04:51:38.666Z,22.77
2018-09-01T04:54:07.081Z,25.32
2018-09-01T04:56:35.534Z,22.60
2018-09-01T04:59:04.002Z,22.20
2018-09-01T05:01:32.450Z,21.48
2018-09-01T05:04:00.921Z,25.68
2018-09-01T05:06:29.384Z,25.43
2018-09-01T05:08:57.840Z,22.80
2018-09-01T05:11:26.258Z,22.13
2018-09-01T05:13:54.676Z,26.27
2018-09-01T05:16:23.151Z,22.87
2018-09-01T05:18:51.944Z,22.95
2018-09-01T05:21:20.405Z,25.60
2018-09-01T05:23:48.873Z,24.05
2018-09-01T05:26:17.312Z,23.85
2018-09-01T05:28:45.808Z,25.82
2018-09-01T05:31:14.216Z,26.17
2018-09-01T05:33:42.796Z,22.45
2018-09-01T05:36:11.209Z,25.32
2018-09-01T05:38:39.570Z,23.83
2018-09-01T05:41:07.977Z,26.23
2018-09-01T05:43:36.452Z,23.22
2018-09-01T05:46:04.856Z,26.80
2018-09-01T05:48:33.300Z,25.17
2018-09-01T05:51:01.708Z,27.48
2018-09-01T05:53:30.173Z,24.02
2018-09-01T05:55:58.586Z,24.55
2018-09-01T05:58:27.241Z,28.55
2018-09-01T06:00:56.062Z,25.43
2018-09-01T06:03:24.555Z,25.60
2018-09-01T06:05:53.030Z,25.45
2018-09-01T06:08:21.534Z,23.90
2018-09-01T06:10:49.955Z,25.60
2018-09-01T06:13:18.380Z,23.87
2018-09-01T06:15:46.810Z,26.37
2018-09-01T06:18:15.246Z,24.45
2018-09-01T06:20:43.649Z,24.75
2018-09-01T06:23:12.123Z,24.15
2018-09-01T06:25:40.569Z,21.57
2018-09-01T06:28:12.948Z,23.15
2018-09-01T06:30:43.692Z,22.67
2018-09-01T06:33:12.190Z,25.00
2018-09-01T06:35:40.601Z,25.08
2018-09-01T06:38:09.052Z,22.65
2018-09-01T06:40:37.148Z,21.90
2018-09-01T06:43:05.647Z,21.35
2018-09-01T06:45:34.049Z,22.93
2018-09-01T06:48:02.519Z,22.37
2018-09-01T06:50:30.955Z,24.95
2018-09-01T06:52:59.184Z,20.60
2018-09-01T06:55:27.629Z,21.93
2018-09-01T06:57:56.081Z,13.55
2018-09-01T07:00:24.681Z,11.75
2018-09-01T07:02:55.054Z,13.80
2018-09-01T07:05:23.707Z,13.55
2018-09-01T07:07:52.157Z,11.43
2018-09-01T07:10:20.913Z,10.65
2018-09-01T07:12:49.376Z,13.20
2018-09-01T07:15:17.808Z,14.65
2018-09-01T07:17:46.213Z,10.13
2018-09-01T07:20:14.701Z,9.65
2018-09-01T07:22:43.156Z,10.63
2018-09-01T07:25:11.608Z,10.05
2018-09-01T07:27:40.148Z,10.90
2018-09-01T07:30:10.090Z,11.93
2018-09-01T07:32:38.421Z,9.35
2018-09-01T07:35:06.926Z,10.93
2018-09-01T07:37:35.361Z,7.78
2018-09-01T07:40:04.169Z,10.38
2018-09-01T07:42:32.572Z,8.15
2018-09-01T07:45:01.089Z,10.13
2018-09-01T07:47:29.553Z,9.20
2018-09-01T07:49:58.089Z,10.70
2018-09-01T07:52:26.638Z,9.15
2018-09-01T07:54:56.115Z,9.73
2018-09-01T07:57:24.589Z,9.88
2018-09-01T07:59:53.591Z,7.62
2018-09-01T08:02:22.000Z,6.95
2018-09-01T08:04:50.171Z,10.72
2018-09-01T08:07:18.620Z,6.70
2018-09-01T08:09:47.243Z,6.67
2018-09-01T08:12:15.881Z,7.33
2018-09-01T08:14:44.404Z,5.80
2018-09-01T08:17:12.871Z,9.60
2018-09-01T08:19:41.333Z,9.50
2018-09-01T08:22:09.745Z,7.03
2018-09-01T08:24:38.222Z,8.90
2018-09-01T08:27:06.705Z,6.58
2018-09-01T08:29:35.233Z,7.08
2018-09-01T08:32:03.713Z,7.70
2018-09-01T08:34:32.168Z,6.87
2018-09-01T08:37:00.574Z,5.60
2018-09-01T08:39:28.709Z,6.35
2018-09-01T08:41:57.388Z,7.40
2018-09-01T08:44:26.031Z,8.35
2018-09-01T08:46:54.454Z,7.15
2018-09-01T08:49:22.961Z,6.92
2018-09-01T08:51:51.385Z,8.08
2018-09-01T08:54:19.896Z,9.38
2018-09-01T08:56:48.301Z,8.25
2018-09-01T08:59:16.480Z,10.90
2018-09-01T09:01:44.913Z,8.93
2018-09-01T09:04:13.428Z,8.70
2018-09-01T09:06:41.872Z,8.68
2018-09-01T09:09:10.292Z,9.28
2018-09-01T09:11:38.806Z,7.62
2018-09-01T09:14:07.352Z,8.98
2018-09-01T09:16:35.841Z,9.33
2018-09-01T09:19:04.292Z,8.08
2018-09-01T09:21:32.730Z,10.58
2018-09-01T09:24:01.163Z,6.70
2018-09-01T09:26:29.690Z,10.40
2018-09-01T09:28:58.164Z,10.85
2018-09-01T09:31:26.324Z,11.55
2018-09-01T09:33:54.784Z,9.40
2018-09-01T09:36:23.233Z,8.13
2018-09-01T09:38:51.686Z,9.18
2018-09-01T09:41:20.173Z,10.38
2018-09-01T09:43:48.661Z,9.55
2018-09-01T09:46:17.271Z,7.00
2018-09-01T09:48:45.547Z,7.47
2018-09-01T09:51:13.996Z,9.53
2018-09-01T09:53:42.570Z,10.65
2018-09-01T09:56:11.025Z,9.45
2018-09-01T09:58:39.641Z,8.00
2018-09-01T10:01:12.097Z,8.08
2018-09-01T10:03:40.559Z,7.92
2018-09-01T10:06:09.034Z,8.88
2018-09-01T10:08:37.464Z,8.88
2018-09-01T10:11:05.745Z,8.18
2018-09-01T10:13:34.160Z,9.48
2018-09-01T10:16:02.596Z,7.97
2018-09-01T10:18:30.985Z,10.60
2018-09-01T10:20:59.453Z,9.35
2018-09-01T10:23:27.836Z,7.25
2018-09-01T10:25:56.286Z,8.10
2018-09-01T10:28:24.372Z,12.05
2018-09-01T10:30:52.867Z,8.10
2018-09-01T10:33:21.488Z,12.85
2018-09-01T10:35:50.301Z,9.10
2018-09-01T10:38:18.774Z,6.80
2018-09-01T10:40:47.204Z,7.42
2018-09-01T10:43:15.611Z,7.78
2018-09-01T10:45:44.074Z,7.35
2018-09-01T10:48:12.554Z,6.42
2018-09-01T10:50:40.970Z,6.87
2018-09-01T10:53:09.506Z,7.22
2018-09-01T10:55:38.090Z,7.42
2018-09-01T10:58:06.541Z,7.10
2018-09-01T11:00:35.031Z,10.58
2018-09-01T11:03:03.496Z,9.75
2018-09-01T11:05:31.934Z,8.95
2018-09-01T11:08:00.394Z,8.70
2018-09-01T11:10:28.842Z,8.00
2018-09-01T11:12:57.284Z,9.38
2018-09-01T11:15:25.741Z,10.58
2018-09-01T11:17:54.205Z,13.43
2018-09-01T11:20:22.803Z,11.88
2018-09-01T11:22:51.117Z,9.68
2018-09-01T11:25:19.534Z,11.20
2018-09-01T11:27:48.032Z,10.90
2018-09-01T11:30:16.424Z,9.05
2018-09-01T11:32:44.968Z,10.53
2018-09-01T11:35:13.555Z,10.15
2018-09-01T11:37:42.020Z,10.60
2018-09-01T11:40:10.467Z,9.78
2018-09-01T11:42:39.029Z,7.35
2018-09-01T11:45:07.449Z,9.15
2018-09-01T11:47:35.908Z,7.03
2018-09-01T11:50:04.385Z,7.17
2018-09-01T11:52:32.820Z,7.58
2018-09-01T11:55:01.404Z,7.22
2018-09-01T11:57:30.059Z,7.37
2018-09-01T11:59:58.213Z,7.65
2018-09-01T12:02:26.679Z,9.28
2018-09-01T12:04:55.073Z,6.90
2018-09-01T12:07:23.517Z,7.12
2018-09-01T12:09:51.924Z,10.40
2018-09-01T12:12:20.553Z,9.55
2018-09-01T12:14:49.347Z,8.65
2018-09-01T12:17:17.801Z,9.50
2018-09-01T12:19:46.221Z,7.15
2018-09-01T12:22:14.651Z,8.20
2018-09-01T12:24:43.066Z,8.05
2018-09-01T12:27:11.529Z,7.53
2018-09-01T12:29:39.947Z,9.65
2018-09-01T12:32:08.423Z,12.55
2018-09-01T12:34:36.872Z,5.90
2018-09-01T12:37:05.293Z,8.05
2018-09-01T12:39:33.803Z,6.85
2018-09-01T12:42:02.292Z,7.95
2018-09-01T12:44:30.789Z,9.65
2018-09-01T12:46:59.357Z,7.87
2018-09-01T12:49:27.813Z,6.03
2018-09-01T12:51:56.232Z,7.37
2018-09-01T12:54:24.725Z,7.47
2018-09-01T12:56:53.184Z,7.55
2018-09-01T12:59:21.769Z,6.83
2018-09-01T13:01:50.170Z,6.50
2018-09-01T13:04:18.637Z,5.05
2018-09-01T13:06:47.260Z,6.53
2018-09-01T13:09:15.947Z,5.35
2018-09-01T13:11:44.428Z,8.45
2018-09-01T13:14:12.892Z,5.85
2018-09-01T13:16:41.392Z,6.22
2018-09-01T13:19:09.896Z,6.35
2018-09-01T13:21:38.333Z,7.03
2018-09-01T13:24:06.924Z,5.85
2018-09-01T13:26:35.389Z,6.37
2018-09-01T13:29:03.931Z,5.58
2018-09-01T13:31:32.457Z,6.03
2018-09-01T13:34:01.278Z,5.22
2018-09-01T13:36:29.759Z,8.63
2018-09-01T13:38:58.351Z,6.50
2018-09-01T13:41:26.776Z,5.42
2018-09-01T13:43:55.264Z,6.05
2018-09-01T13:46:23.765Z,6.22
2018-09-01T13:48:52.213Z,6.20
2018-09-01T13:51:20.626Z,5.47
2018-09-01T13:53:49.077Z,5.00
2018-09-01T13:56:17.541Z,5.60
2018-09-01T13:58:46.028Z,8.33
2018-09-01T14:01:14.456Z,5.75
2018-09-01T14:03:42.913Z,8.30
2018-09-01T14:06:11.400Z,6.22
2018-09-01T14:08:39.865Z,6.87
2018-09-01T14:11:08.455Z,6.25
2018-09-01T14:13:36.917Z,7.42
2018-09-01T14:16:05.377Z,6.97
2018-09-01T14:18:33.885Z,10.50
2018-09-01T14:21:02.387Z,9.80
2018-09-01T14:23:30.441Z,8.65
2018-09-01T14:25:58.979Z,9.33
2018-09-01T14:28:27.420Z,9.88
2018-09-01T14:30:55.574Z,9.05
2018-09-01T14:33:24.010Z,9.80
2018-09-01T14:35:52.526Z,10.45
2018-09-01T14:38:21.730Z,13.08
2018-09-01T14:40:50.177Z,13.03
2018-09-01T14:43:18.592Z,13.13
2018-09-01T14:45:47.061Z,13.95
2018-09-01T14:48:15.476Z,12.25
2018-09-01T14:50:43.995Z,10.08
2018-09-01T14:53:12.471Z,13.50
2018-09-01T14:55:40.896Z,10.90
2018-09-01T14:58:09.006Z,10.38
2018-09-01T15:00:37.516Z,12.43
2018-09-01T15:03:05.965Z,14.83
2018-09-01T15:05:34.479Z,12.90
2018-09-01T15:08:02.904Z,12.78
2018-09-01T15:10:31.388Z,11.88
2018-09-01T15:12:59.842Z,16.07
2018-09-01T15:15:28.278Z,14.20
2018-09-01T15:17:56.697Z,14.98
2018-09-01T15:20:25.254Z,14.63
2018-09-01T15:22:53.719Z,13.18
2018-09-01T15:25:22.400Z,28.47
2018-09-01T15:27:50.557Z,11.48
2018-09-01T15:30:19.009Z,12.70
2018-09-01T15:32:47.401Z,13.48
2018-09-01T15:35:15.921Z,13.30
2018-09-01T15:37:44.341Z,12.80
2018-09-01T15:40:12.534Z,9.55
2018-09-01T15:42:40.955Z,13.32
2018-09-01T15:45:09.413Z,14.28
2018-09-01T15:47:37.603Z,13.08
2018-09-01T15:50:06.500Z,11.18
2018-09-01T15:52:34.923Z,13.40
2018-09-01T15:55:03.494Z,14.55
2018-09-01T15:57:31.921Z,14.65
2018-09-01T16:00:00.453Z,11.20
2018-09-01T16:02:28.882Z,15.30
2018-09-01T16:04:57.364Z,13.55
2018-09-01T16:07:25.810Z,11.45
2018-09-01T16:09:54.037Z,11.83
2018-09-01T16:12:22.504Z,11.35
2018-09-01T16:14:50.940Z,11.38
2018-09-01T16:17:19.380Z,15.90
2018-09-01T16:19:47.804Z,13.10
2018-09-01T16:22:16.290Z,13.98
2018-09-01T16:24:44.701Z,12.05
2018-09-01T16:27:13.185Z,14.47
2018-09-01T16:29:41.640Z,12.95
2018-09-01T16:32:10.090Z,14.87
2018-09-01T16:34:38.678Z,12.37
2018-09-01T16:37:07.100Z,11.00
2018-09-01T16:39:35.755Z,14.95
2018-09-01T16:42:04.264Z,12.73
2018-09-01T16:44:32.715Z,14.35
2018-09-01T16:47:01.211Z,13.32
2018-09-01T16:49:29.664Z,12.35
2018-09-01T16:51:58.248Z,10.13
2018-09-01T16:54:26.822Z,14.90
2018-09-01T16:56:55.272Z,15.98
2018-09-01T16:59:23.731Z,14.35
2018-09-01T17:01:52.108Z,15.03
2018-09-01T17:04:20.513Z,14.65
2018-09-01T17:06:48.989Z,14.90
2018-09-01T17:09:17.189Z,12.93
2018-09-01T17:11:45.603Z,15.58
2018-09-01T17:14:13.808Z,23.27
2018-09-01T17:16:42.440Z,14.60
2018-09-01T17:19:10.864Z,10.98
2018-09-01T17:21:39.323Z,15.23
2018-09-01T17:24:07.803Z,12.07
2018-09-01T17:26:36.232Z,37.17
2018-09-01T17:29:04.717Z,19.57
2018-09-01T17:31:33.180Z,12.18
2018-09-01T17:34:01.601Z,15.80
2018-09-01T17:36:30.109Z,13.48
2018-09-01T17:38:58.206Z,11.60
2018-09-01T17:41:26.646Z,13.15
2018-09-01T17:43:55.093Z,12.90
2018-09-01T17:46:23.560Z,13.22
2018-09-01T17:48:52.022Z,11.83
2018-09-01T17:51:20.649Z,12.55
2018-09-01T17:53:49.109Z,10.80
2018-09-01T17:56:17.521Z,11.68
2018-09-01T17:58:46.056Z,11.12
2018-09-01T18:01:15.512Z,12.68
2018-09-01T18:03:44.032Z,9.53
2018-09-01T18:06:12.441Z,12.95
2018-09-01T18:08:40.948Z,11.45
2018-09-01T18:11:09.735Z,14.87
2018-09-01T18:13:38.335Z,16.55
2018-09-01T18:16:07.017Z,9.63
2018-09-01T18:18:35.490Z,9.73
2018-09-01T18:21:03.949Z,11.55
2018-09-01T18:23:32.417Z,17.65
2018-09-01T18:26:00.829Z,13.62
2018-09-01T18:28:29.276Z,12.65
2018-09-01T18:30:57.673Z,12.23
2018-09-01T18:33:26.141Z,15.75
2018-09-01T18:35:54.659Z,15.28
2018-09-01T18:38:23.033Z,17.62
2018-09-01T18:40:51.544Z,13.45
2018-09-01T18:43:20.081Z,12.43
2018-09-01T18:45:48.508Z,19.27
2018-09-01T18:48:17.049Z,15.95
2018-09-01T18:50:45.491Z,12.15
2018-09-01T18:53:14.109Z,13.32
2018-09-01T18:55:42.542Z,14.45
2018-09-01T18:58:11.036Z,15.20
2018-09-01T19:00:39.541Z,17.07
2018-09-01T19:03:08.129Z,13.90
2018-09-01T19:10:22.220Z,16.52
2018-09-01T19:12:50.692Z,13.98
2018-09-01T19:15:19.140Z,14.80
2018-09-01T19:17:47.609Z,17.35
2018-09-01T19:20:16.009Z,12.88
2018-09-01T19:22:44.478Z,15.38
2018-09-01T19:25:12.952Z,11.12
2018-09-01T19:27:41.457Z,14.87
2018-09-01T19:30:10.254Z,14.93
2018-09-01T19:32:39.162Z,12.13
2018-09-01T19:35:07.769Z,13.60
2018-09-01T19:37:35.935Z,14.78
2018-09-01T19:40:04.473Z,12.98
2018-09-01T19:42:32.937Z,17.20
2018-09-01T19:45:01.421Z,10.28
2018-09-01T19:47:29.817Z,14.18
2018-09-01T19:49:58.299Z,12.90
2018-09-01T19:52:27.372Z,15.93
2018-09-01T19:54:55.921Z,14.10
2018-09-01T19:57:24.374Z,11.68
2018-09-01T19:59:52.933Z,12.33
2018-09-01T20:02:21.420Z,11.43
2018-09-01T20:04:49.947Z,11.43
2018-09-01T20:07:18.343Z,14.13
2018-09-01T20:09:46.820Z,12.47
2018-09-01T20:12:15.231Z,10.45
2018-09-01T20:14:43.818Z,15.13
2018-09-01T20:17:12.294Z,11.80
2018-09-01T20:19:40.820Z,14.40
2018-09-01T20:22:09.280Z,19.37
2018-09-01T20:24:37.780Z,13.38
2018-09-01T20:27:06.252Z,13.65
2018-09-01T20:29:34.697Z,12.98
2018-09-01T20:32:03.121Z,16.12
2018-09-01T20:34:31.672Z,13.03
2018-09-01T20:37:00.150Z,14.55
2018-09-01T20:39:28.603Z,15.30
2018-09-01T20:41:56.725Z,13.00
2018-09-01T20:44:25.212Z,14.35
2018-09-01T20:46:53.633Z,13.83
2018-09-01T20:49:22.073Z,18.73
2018-09-01T20:51:50.626Z,13.20
2018-09-01T20:54:19.041Z,12.90
2018-09-01T20:56:47.228Z,15.45
2018-09-01T20:59:15.797Z,15.28
2018-09-01T21:01:43.896Z,15.05
2018-09-01T21:04:12.448Z,17.10
2018-09-01T21:06:40.843Z,16.27
2018-09-01T21:09:10.303Z,14.47
2018-09-01T21:11:39.101Z,19.73
2018-09-01T21:14:07.904Z,22.15
2018-09-01T21:16:36.338Z,19.32
2018-09-01T21:19:04.736Z,15.68
2018-09-01T21:21:32.864Z,21.97
2018-09-01T21:24:01.332Z,19.10
2018-09-01T21:26:29.911Z,16.87
2018-09-01T21:28:58.264Z,19.37
2018-09-01T21:31:26.729Z,22.10
2018-09-01T21:33:55.161Z,22.30
2018-09-01T21:36:23.927Z,20.92
2018-09-01T21:38:52.354Z,20.12
2018-09-01T21:41:20.862Z,18.48
2018-09-01T21:43:49.729Z,18.95
2018-09-01T21:46:18.191Z,19.55
2018-09-01T21:48:46.336Z,20.30
2018-09-01T21:51:14.792Z,16.20
2018-09-01T21:53:43.213Z,16.82
2018-09-01T21:56:11.754Z,18.50
2018-09-01T21:58:40.210Z,17.00
2018-09-01T22:01:14.145Z,20.77
2018-09-01T22:03:47.958Z,17.15
2018-09-01T22:06:17.600Z,16.67
2018-09-01T22:08:46.017Z,18.32
2018-09-01T22:11:14.494Z,18.57
2018-09-01T22:13:42.940Z,17.80
2018-09-01T22:16:11.386Z,15.83
2018-09-01T22:18:39.797Z,17.07
2018-09-01T22:21:08.560Z,15.93
2018-09-01T22:23:37.388Z,14.78
2018-09-01T22:26:06.003Z,13.93
2018-09-01T22:28:34.469Z,14.95
2018-09-01T22:31:02.947Z,15.88
2018-09-01T22:33:31.378Z,12.78
2018-09-01T22:36:00.128Z,15.10
2018-09-01T22:38:28.741Z,14.43
2018-09-01T22:40:57.224Z,13.30
2018-09-01T22:43:25.644Z,11.73
2018-09-01T22:45:54.130Z,12.70
2018-09-01T22:48:22.576Z,13.72
2018-09-01T22:50:51.091Z,13.35
2018-09-01T22:53:19.220Z,12.93
2018-09-01T22:55:47.636Z,13.08
2018-09-01T22:58:16.054Z,14.55
2018-09-01T23:00:44.534Z,13.68
2018-09-01T23:03:12.942Z,12.23
2018-09-01T23:05:41.128Z,12.70
2018-09-01T23:08:09.634Z,12.58
2018-09-01T23:10:38.081Z,15.10
2018-09-01T23:13:06.562Z,10.98
2018-09-01T23:15:35.017Z,11.18
2018-09-01T23:18:03.195Z,11.22
2018-09-01T23:20:31.633Z,10.32
2018-09-01T23:23:00.076Z,9.40
2018-09-01T23:25:28.525Z,11.85
2018-09-01T23:27:56.984Z,8.68
2018-09-01T23:30:25.076Z,11.08
2018-09-01T23:32:53.540Z,10.60
2018-09-01T23:35:22.019Z,9.20
2018-09-01T23:37:50.469Z,8.40
2018-09-01T23:40:18.904Z,9.48
2018-09-01T23:42:47.332Z,9.78
2018-09-01T23:45:15.773Z,8.65
2018-09-01T23:47:44.220Z,8.98
2018-09-01T23:50:12.647Z,14.15
2018-09-01T23:52:41.145Z,10.48
2018-09-01T23:55:09.636Z,11.03
2018-09-01T23:57:38.113Z,9.70
